Flight Track Log - Related Links

Times and Time Zones

All times are in EDT time to prevent confusion due to time zone crossing. See the C-FMZW flight status page for this flight to view local times or setup timezone preferences in your user account.

Time Position Orientation Groundspeed Altitude Reporting Facility
EDT Latitude Longitude Course Direction KTS MPH feet Rate Location/Type
Mon 09:05:54 PM 51.0667 -114.0333 101° East 150 173 3,900  Level Edmonton Center
Mon 09:10:54 PM 51.0167 -113.6167 90° East 380 437 14,300 2,283 Climbing Edmonton Center
Mon 09:11:54 PM 51.0167 -113.4333 81° East 380 437 17,600 2,650 Climbing Edmonton Center
Mon 09:12:54 PM 51.0333 -113.2667 98° East 390 449 19,600 2,050 Climbing Edmonton Center
Mon 09:13:54 PM 51.0167 -113.0833 82° East 410 472 21,700 1,600 Climbing Edmonton Center
Mon 09:14:54 PM 51.0333 -112.8833 90° East 440 506 22,800 1,450 Climbing Edmonton Center
Mon 09:15:54 PM 51.0333 -112.7000 90° East 460 529 24,600 1,800 Climbing Edmonton Center
Mon 09:16:54 PM 51.0333 -112.4833 90° East 470 541 26,400 1,631 Climbing Edmonton Center
Mon 09:17:37 PM 51.0333 -112.3500 90° East 480 552 27,400 1,456 Climbing Winnipeg Center
Mon 09:18:37 PM 51.0333 -112.1333 105° East 490 564 28,900 1,450 Climbing Winnipeg Center
Mon 09:19:37 PM 51.0000 -111.9333 90° East 500 575 30,300 1,500 Climbing Winnipeg Center
Mon 09:20:37 PM 51.0000 -111.6833 95° East 500 575 31,900 1,445 Climbing Winnipeg Center
Mon 09:21:54 PM 50.9833 -111.4000 97° East 490 564 33,600 1,358 Climbing Edmonton Center
Mon 09:22:54 PM 50.9667 -111.1833 90° East 480 552 35,000 816 Climbing Edmonton Center
Mon 09:23:37 PM 50.9667 -111.0500 97° East 500 575 35,000  Level Winnipeg Center
Mon 09:24:37 PM 50.9500 -110.8333 96° East 520 598 35,000  Level Winnipeg Center
Mon 09:25:37 PM 50.9333 -110.5833 90° East 520 598 35,000  Level Winnipeg Center
Mon 09:26:37 PM 50.9333 -110.3667 103° East 520 598 35,000  Level Winnipeg Center
Mon 09:27:37 PM 50.9000 -110.1333 90° East 520 598 35,000  Level Winnipeg Center
Mon 09:28:37 PM 50.9000 -109.9000 90° East 520 598 35,000  Level Winnipeg Center
Mon 09:29:37 PM 50.9000 -109.7000 90° East 520 598 35,000  Level Winnipeg Center
Mon 09:30:38 PM 50.9000 -109.4500 97° East 520 598 35,000  Level Winnipeg Center
Mon 09:31:37 PM 50.8833 -109.2333 90° East 520 598 35,000  Level Winnipeg Center
Mon 09:32:37 PM 50.8833 -109.0000 96° East 520 598 35,000  Level Winnipeg Center
Mon 09:33:37 PM 50.8667 -108.7667 96° East 520 598 35,000  Level Winnipeg Center
Mon 09:34:37 PM 50.8500 -108.5333 90° East 520 598 35,000  Level Winnipeg Center
Mon 09:35:38 PM 50.8500 -108.3167 96° East 520 598 35,000  Level Winnipeg Center
Mon 09:36:37 PM 50.8333 -108.0667 97° East 520 598 35,000  Level Winnipeg Center
Mon 09:37:37 PM 50.8167 -107.8500 90° East 530 610 35,000  Level Winnipeg Center
Mon 09:38:37 PM 50.8167 -107.6167 97° East 520 598 35,000  Level Winnipeg Center
Mon 09:39:37 PM 50.8000 -107.4000 96° East 520 598 35,000  Level Winnipeg Center
Mon 09:40:37 PM 50.7833 -107.1500 97° East 520 598 35,000  Level Winnipeg Center
Mon 09:41:37 PM 50.7667 -106.9333 97° East 520 598 35,000  Level Winnipeg Center
Mon 09:42:37 PM 50.7500 -106.7167 90° East 520 598 35,000  Level Winnipeg Center
Mon 09:43:37 PM 50.7500 -106.4833 96° East 520 598 35,000  Level Winnipeg Center
Mon 09:44:37 PM 50.7333 -106.2333 90° East 520 598 35,000  Level Winnipeg Center
Mon 09:45:37 PM 50.7333 -106.0167 97° East 520 598 35,000  Level Winnipeg Center
Mon 09:46:37 PM 50.7167 -105.8000 96° East 520 598 35,000  Level Winnipeg Center
Mon 09:47:37 PM 50.7000 -105.5667 97° East 530 610 35,000  Level Winnipeg Center
Mon 09:48:37 PM 50.6833 -105.3500 96° East 530 610 35,000  Level Winnipeg Center
Mon 09:49:37 PM 50.6667 -105.0833 97° East 530 610 35,000  Level Winnipeg Center
Mon 09:50:37 PM 50.6500 -104.8667 97° East 530 610 35,000  Level Winnipeg Center
Mon 09:51:37 PM 50.6333 -104.6500 96° East 530 610 35,000  Level Winnipeg Center
Mon 09:52:37 PM 50.6167 -104.4167 96° East 530 610 35,000  Level Winnipeg Center
Mon 09:53:37 PM 50.6000 -104.1667 104° East 530 610 35,000  Level Winnipeg Center
Mon 09:54:37 PM 50.5667 -103.9500 96° East 530 610 35,000  Level Winnipeg Center
Mon 09:55:37 PM 50.5500 -103.7167 97° East 530 610 35,000  Level Winnipeg Center
Mon 09:56:37 PM 50.5333 -103.5000 96° East 530 610 35,000  Level Winnipeg Center
Mon 09:57:37 PM 50.5167 -103.2667 98° East 530 610 35,000  Level Winnipeg Center
Mon 10:05:37 PM 50.3333 -101.4167 100° East 530 610 35,000  Level Winnipeg Center
Mon 10:10:37 PM 50.2000 -100.2833 102° East 530 610 35,000  Level Winnipeg Center
Mon 10:11:37 PM 50.1667 -100.0500 97° East 530 610 35,000  Level Winnipeg Center
Mon 10:12:37 PM 50.1500 -99.8333 104° East 530 610 35,000  Level Winnipeg Center
Mon 10:13:37 PM 50.1167 -99.6333 102° East 530 610 35,000  Level Winnipeg Center
Mon 10:14:37 PM 50.0833 -99.3833 96° East 530 610 35,000  Level Winnipeg Center
Mon 10:15:37 PM 50.0667 -99.1500 104° East 520 598 35,000  Level Winnipeg Center
Mon 10:16:37 PM 50.0333 -98.9500 102° East 520 598 35,000  Level Winnipeg Center
Mon 10:17:37 PM 50.0000 -98.7167 103° East 520 598 35,000  Level Winnipeg Center
Mon 10:18:37 PM 49.9667 -98.5000 102° East 530 610 35,000  Level Winnipeg Center
Mon 10:19:37 PM 49.9333 -98.2667 103° East 530 610 35,000  Level Winnipeg Center
Mon 10:20:37 PM 49.9000 -98.0500 90° East 530 610 35,000  Level Winnipeg Center
Mon 10:21:37 PM 49.9000 -97.8167 104° East 530 610 35,000  Level Winnipeg Center
Mon 10:22:37 PM 49.8667 -97.6167 102° East 530 610 35,000  Level Winnipeg Center
Mon 10:23:37 PM 49.8333 -97.3833 102° East 530 610 35,000  Level Winnipeg Center
Mon 10:24:37 PM 49.8000 -97.1500 103° East 530 610 35,000  Level Winnipeg Center
Mon 10:25:37 PM 49.7667 -96.9333 104° East 520 598 35,000  Level Winnipeg Center
Mon 10:26:37 PM 49.7333 -96.7333 104° East 510 587 35,000  Level Winnipeg Center
Mon 10:27:37 PM 49.7000 -96.5333 102° East 520 598 35,000  Level Winnipeg Center
Mon 10:28:37 PM 49.6667 -96.3000 110° East 510 587 35,000  Level Winnipeg Center
Mon 10:29:37 PM 49.6167 -96.0833 102° East 520 598 35,000  Level Winnipeg Center
Mon 10:30:37 PM 49.5833 -95.8500 104° East 510 587 35,000  Level Winnipeg Center
Mon 10:31:37 PM 49.5500 -95.6500 102° East 510 587 35,000  Level Winnipeg Center
Mon 10:32:37 PM 49.5167 -95.4167 106° East 510 587 35,000  Level Winnipeg Center
Mon 10:33:37 PM 49.4833 -95.2333 97° East 510 587 35,000  Level Winnipeg Center
Mon 10:34:37 PM 49.4667 -95.0333 108° East 510 587 35,000  Level Winnipeg Center
Mon 10:35:37 PM 49.4167 -94.8000 104° East 510 587 35,000  Level Winnipeg Center
Mon 10:36:37 PM 49.3833 -94.6000 104° East 500 575 35,000  Level Winnipeg Center
Mon 10:37:37 PM 49.3500 -94.4000 104° East 500 575 35,000  Level Winnipeg Center
Mon 10:38:37 PM 49.3167 -94.2000 108° East 500 575 35,000  Level Winnipeg Center
Mon 10:39:37 PM 49.2667 -93.9667 105° East 500 575 35,000  Level Winnipeg Center
Mon 10:40:37 PM 49.2333 -93.7833 109° East 490 564 35,000  Level Winnipeg Center
Mon 10:41:37 PM 49.1833 -93.5667 98° East 490 564 35,000  Level Winnipeg Center
Mon 10:42:37 PM 49.1667 -93.3833 102° East 490 564 35,000  Level Winnipeg Center
Mon 10:43:37 PM 49.1333 -93.1500 111° Southeast 510 587 35,000  Level Winnipeg Center
Mon 10:44:37 PM 49.0833 -92.9500 104° East 510 587 35,000  Level Winnipeg Center
Mon 10:45:37 PM 49.0500 -92.7500 111° Southeast 500 575 35,000  Level Winnipeg Center
Mon 10:46:37 PM 49.0000 -92.5500 104° East 490 564 35,000  Level Winnipeg Center
Mon 10:47:37 PM 48.9667 -92.3500 104° East 500 575 35,000  Level Winnipeg Center
Mon 10:48:37 PM 48.9333 -92.1500 103° East 500 575 35,000  Level Winnipeg Center
Mon 10:49:37 PM 48.9000 -91.9333 111° Southeast 500 575 35,000  Level Winnipeg Center
Mon 10:50:37 PM 48.8500 -91.7333 105° East 500 575 35,000  Level Winnipeg Center
Mon 10:51:37 PM 48.8167 -91.5500 109° East 490 564 35,000  Level Winnipeg Center
Mon 10:52:37 PM 48.7667 -91.3333 111° Southeast 490 564 35,000  Level Winnipeg Center
Mon 10:53:37 PM 48.7167 -91.1333 104° East 490 564 35,000  Level Winnipeg Center
Mon 10:54:37 PM 48.6833 -90.9333 104° East 490 564 35,000  Level Winnipeg Center
Mon 10:55:37 PM 48.6500 -90.7333 114° Southeast 490 564 35,000  Level Winnipeg Center
Mon 10:56:37 PM 48.6000 -90.5667 103° East 500 575 35,000  Level Winnipeg Center
Mon 10:57:37 PM 48.5667 -90.3500 111° Southeast 500 575 35,000  Level Winnipeg Center
Mon 10:58:37 PM 48.5167 -90.1500 104° East 500 575 35,000  Level Winnipeg Center
Mon 10:59:37 PM 48.4833 -89.9500 104° East 500 575 35,000  Level Winnipeg Center
Mon 11:00:37 PM 48.4500 -89.7500 97° East 500 575 35,000  Level Winnipeg Center
Mon 11:01:37 PM 48.4333 -89.5333 97° East 500 575 35,000  Level Winnipeg Center
Mon 11:02:37 PM 48.4167 -89.3333 97° East 500 575 35,000  Level Winnipeg Center
Mon 11:03:37 PM 48.4000 -89.1333 104° East 500 575 35,000  Level Winnipeg Center
Mon 11:04:37 PM 48.3667 -88.9333 96° East 510 587 35,000  Level Winnipeg Center
Mon 11:05:37 PM 48.3500 -88.7000 105° East 510 587 35,000  Level Winnipeg Center
Mon 11:06:37 PM 48.3167 -88.5167 97° East 510 587 35,000  Level Winnipeg Center
Mon 11:07:37 PM 48.3000 -88.3167 102° East 500 575 35,000  Level Winnipeg Center
Mon 11:08:37 PM 48.2667 -88.0833 97° East 500 575 35,000  Level Winnipeg Center
Mon 11:09:37 PM 48.2500 -87.8833 103° East 500 575 35,000  Level Winnipeg Center
Mon 11:10:37 PM 48.2167 -87.6667 97° East 510 587 35,000  Level Winnipeg Center
Mon 11:11:37 PM 48.2000 -87.4667 103° East 510 587 35,000  Level Winnipeg Center
Mon 11:12:37 PM 48.1667 -87.2500 97° East 510 587 35,000  Level Winnipeg Center
Mon 11:13:37 PM 48.1500 -87.0500 103° East 510 587 35,000  Level Winnipeg Center
Mon 11:14:37 PM 48.1167 -86.8333 104° East 510 587 35,000  Level Winnipeg Center
Mon 11:15:37 PM 48.0833 -86.6333 105° East 500 575 35,000  Level Winnipeg Center
Mon 11:16:37 PM 48.0500 -86.4500 104° East 510 587 35,000  Level Winnipeg Center
Mon 11:17:37 PM 48.0167 -86.2500 96° East 500 575 35,000  Level Winnipeg Center
Mon 11:18:37 PM 48.0000 -86.0333 98° East 510 587 35,000  Level Winnipeg Center
Mon 11:19:41 PM 47.9833 -85.8500 97° East 500 575 35,000  Level Toronto Center
Mon 11:20:41 PM 47.9667 -85.6500 110° East 500 575 35,000  Level Toronto Center
Mon 11:21:41 PM 47.9167 -85.4500 97° East 500 575 35,000  Level Toronto Center
Mon 11:22:41 PM 47.9000 -85.2500 110° East 500 575 35,000  Level Toronto Center
Mon 11:23:41 PM 47.8500 -85.0500 97° East 500 575 35,000  Level Toronto Center
Mon 11:24:41 PM 47.8333 -84.8500 97° East 500 575 35,000  Level Toronto Center
Mon 11:25:41 PM 47.8167 -84.6500 110° East 500 575 35,000  Level Toronto Center
Mon 11:26:41 PM 47.7667 -84.4500 96° East 500 575 35,000  Level Toronto Center
Mon 11:27:41 PM 47.7500 -84.2333 113° Southeast 500 575 35,000  Level Toronto Center
Mon 11:28:28 PM 47.7167 -84.1167 104° East 490 564 35,000  Level Montreal Center
Mon 11:29:28 PM 47.6833 -83.9167 105° East 490 564 35,000  Level Montreal Center
Mon 11:30:28 PM 47.6500 -83.7333 103° East 490 564 35,000  Level Montreal Center
Mon 11:31:28 PM 47.6167 -83.5167 104° East 490 564 35,000  Level Montreal Center
Mon 11:32:28 PM 47.5833 -83.3167 105° East 490 564 35,000  Level Montreal Center
Mon 11:33:28 PM 47.5500 -83.1333 104° East 490 564 35,000  Level Montreal Center
Mon 11:34:28 PM 47.5167 -82.9333 98° East 490 564 35,000  Level Montreal Center
Mon 11:35:28 PM 47.5000 -82.7500 103° East 490 564 35,000  Level Montreal Center
Mon 11:36:28 PM 47.4667 -82.5333 112° Southeast 490 564 35,000  Level Montreal Center
Mon 11:37:28 PM 47.4167 -82.3500 104° East 480 552 35,000  Level Montreal Center
Mon 11:38:28 PM 47.3833 -82.1500 98° East 490 564 35,000  Level Montreal Center
Mon 11:39:28 PM 47.3667 -81.9667 110° East 490 564 35,000  Level Montreal Center
Mon 11:40:28 PM 47.3167 -81.7667 104° East 480 552 35,000  Level Montreal Center
Mon 11:41:28 PM 47.2833 -81.5667 105° East 480 552 35,000  Level Montreal Center
Mon 11:42:28 PM 47.2500 -81.3833 112° Southeast 480 552 35,000  Level Montreal Center
Mon 11:43:28 PM 47.2000 -81.2000 120° Southeast 470 541 35,000  Level Montreal Center
Mon 11:44:28 PM 47.1333 -81.0333 105° East 470 541 35,000  Level Montreal Center
Mon 11:45:28 PM 47.1000 -80.8500 118° Southeast 470 541 35,000  Level Montreal Center
Mon 11:46:28 PM 47.0333 -80.6667 106° East 480 552 35,000  Level Montreal Center
Mon 11:47:28 PM 47.0000 -80.5000 118° Southeast 480 552 35,000  Level Montreal Center
Mon 11:48:28 PM 46.9333 -80.3167 118° Southeast 480 552 35,000  Level Montreal Center
Mon 11:49:28 PM 46.8667 -80.1333 104° East 480 552 35,000  Level Montreal Center
Mon 11:50:28 PM 46.8333 -79.9333 120° Southeast 480 552 35,000  Level Montreal Center
Mon 11:51:28 PM 46.7667 -79.7667 116° Southeast 480 552 35,000  Level Montreal Center
Mon 11:52:28 PM 46.7167 -79.6167 110° East 480 552 35,000  Level Montreal Center
Mon 11:53:28 PM 46.6667 -79.4167 118° Southeast 470 541 35,000  Level Montreal Center
Mon 11:54:28 PM 46.6000 -79.2333 114° Southeast 470 541 35,000  Level Montreal Center
Mon 11:55:28 PM 46.5500 -79.0667 112° Southeast 470 541 35,000  Level Montreal Center
Mon 11:56:28 PM 46.5000 -78.8833 113° Southeast 470 541 35,000  Level Montreal Center
Mon 11:57:28 PM 46.4500 -78.7167 120° Southeast 470 541 35,000  Level Montreal Center
Mon 11:58:28 PM 46.3833 -78.5500 111° Southeast 470 541 35,000  Level Montreal Center
Mon 11:59:28 PM 46.3333 -78.3667 120° Southeast 470 541 35,000  Level Montreal Center
Tue 12:00:28 AM 46.2667 -78.2000 106° East 470 541 35,000  Level Montreal Center
Tue 12:01:28 AM 46.2333 -78.0333 118° Southeast 470 541 35,000  Level Montreal Center
Tue 12:02:28 AM 46.1667 -77.8500 120° Southeast 470 541 35,000 -400 Level Montreal Center
Tue 12:03:28 AM 46.1000 -77.6833 113° Southeast 470 541 34,200 -1,650 Descending Montreal Center
Tue 12:04:28 AM 46.0500 -77.5167 120° Southeast 470 541 31,700 -2,450 Descending Montreal Center
Tue 12:05:28 AM 45.9833 -77.3500 111° Southeast 470 541 29,300 -2,450 Descending Montreal Center
Tue 12:06:28 AM 45.9333 -77.1667 118° Southeast 460 529 26,800 -2,350 Descending Montreal Center
Tue 12:07:28 AM 45.8833 -77.0333 118° Southeast 440 506 24,600 -2,300 Descending Montreal Center
Tue 12:08:28 AM 45.8167 -76.8500 118° Southeast 430 495 22,200 -2,250 Descending Montreal Center
Tue 12:09:28 AM 45.7667 -76.7167 108° East 420 483 20,100 -2,150 Descending Montreal Center
Tue 12:10:28 AM 45.7333 -76.5667 108° East 400 460 17,900 -1,950 Descending Montreal Center
Tue 12:11:28 AM 45.7000 -76.4167 110° East 390 449 16,200 -1,850 Descending Montreal Center
Tue 12:12:28 AM 45.6667 -76.2833 112° Southeast 380 437 14,200 -1,850 Descending Montreal Center
Tue 12:13:28 AM 45.6333 -76.1667 99° East 370 426 12,500 -1,650 Descending Montreal Center
Tue 12:14:28 AM 45.6167 -76.0167 112° Southeast 340 391 10,900 -1,600 Descending Montreal Center
Tue 12:15:28 AM 45.5833 -75.9000 103° East 310 357 9,300 -1,850 Descending Montreal Center
Tue 12:16:28 AM 45.5667 -75.8000 115° Southeast 290 334 7,200 -1,550 Descending Montreal Center
Tue 12:17:28 AM 45.5333 -75.7000 106° East 260 299 6,200 -900 Descending Montreal Center
Tue 12:18:28 AM 45.5167 -75.6167 120° Southeast 230 265 5,400 -900 Descending Montreal Center
Tue 12:19:28 AM 45.4833 -75.5333 125° Southeast 220 253 4,400 -850 Descending Montreal Center
Tue 12:20:28 AM 45.4500 -75.4667 161° South 210 242 3,700 -700 Descending Montreal Center
Tue 12:21:28 AM 45.4167 -75.4500 215° Southwest 190 219 3,000 -650 Descending Montreal Center
Tue 12:22:28 AM 45.3833 -75.4833 227° Southwest 170 196 2,400 -550 Descending Montreal Center
Tue 12:23:28 AM 45.3500 -75.5333 245° Southwest 170 196 1,900 -550 Descending Montreal Center
Tue 12:24:28 AM 45.3333 -75.5833 240° Southwest 160 184 1,300 -500 Descending Montreal Center
Tue 12:26:28 AM 45.3000 -75.6667 240° Southwest 120 138 400 -450 Descending Montreal Center

Login

Don't have an account? Register now (free) for customized features, flight alerts, and more!